sensor_id;sensor_type;location;lat;lon;timestamp;P1;durP1;ratioP1;P2;durP2;ratioP2
8048;SDS011;20935;42.660;23.342;2022-08-01T00:00:21;5.43;;;3.07;;
8048;SDS011;20935;42.660;23.342;2022-08-01T00:02:46;3.60;;;2.90;;
8048;SDS011;20935;42.660;23.342;2022-08-01T00:05:11;3.90;;;3.10;;
8048;SDS011;20935;42.660;23.342;2022-08-01T00:07:37;3.17;;;2.97;;
8048;SDS011;20935;42.660;23.342;2022-08-01T00:10:03;3.80;;;3.17;;
8048;SDS011;20935;42.660;23.342;2022-08-01T00:12:28;3.00;;;2.80;;
8048;SDS011;20935;42.660;23.342;2022-08-01T00:14:54;3.20;;;2.90;;
8048;SDS011;20935;42.660;23.342;2022-08-01T00:17:19;4.17;;;2.50;;
8048;SDS011;20935;42.660;23.342;2022-08-01T00:19:44;2.63;;;2.43;;
8048;SDS011;20935;42.660;23.342;2022-08-01T00:22:10;4.53;;;2.97;;
8048;SDS011;20935;42.660;23.342;2022-08-01T00:24:35;2.80;;;2.50;;
8048;SDS011;20935;42.660;23.342;2022-08-01T00:27:00;4.90;;;2.70;;
8048;SDS011;20935;42.660;23.342;2022-08-01T00:29:25;3.77;;;3.47;;
8048;SDS011;20935;42.660;23.342;2022-08-01T00:31:51;3.57;;;2.50;;
8048;SDS011;20935;42.660;23.342;2022-08-01T00:34:17;3.40;;;2.40;;
8048;SDS011;20935;42.660;23.342;2022-08-01T00:36:42;2.80;;;2.40;;
8048;SDS011;20935;42.660;23.342;2022-08-01T00:39:07;3.87;;;2.63;;
8048;SDS011;20935;42.660;23.342;2022-08-01T00:41:32;3.57;;;3.27;;
8048;SDS011;20935;42.660;23.342;2022-08-01T00:43:58;4.37;;;3.80;;
8048;SDS011;20935;42.660;23.342;2022-08-01T00:46:23;4.53;;;4.23;;
8048;SDS011;20935;42.660;23.342;2022-08-01T00:48:48;6.00;;;4.40;;
8048;SDS011;20935;42.660;23.342;2022-08-01T00:51:14;5.33;;;4.90;;
8048;SDS011;20935;42.660;23.342;2022-08-01T00:53:39;5.37;;;4.70;;
8048;SDS011;20935;42.660;23.342;2022-08-01T00:56:05;5.67;;;5.27;;
8048;SDS011;20935;42.660;23.342;2022-08-01T00:58:30;6.60;;;5.87;;
8048;SDS011;20935;42.660;23.342;2022-08-01T01:00:57;5.83;;;5.33;;
8048;SDS011;20935;42.660;23.342;2022-08-01T01:03:23;6.07;;;5.07;;
8048;SDS011;20935;42.660;23.342;2022-08-01T01:05:51;6.10;;;5.60;;
8048;SDS011;20935;42.660;23.342;2022-08-01T01:08:22;6.20;;;5.67;;
8048;SDS011;20935;42.660;23.342;2022-08-01T01:10:54;8.93;;;5.47;;
8048;SDS011;20935;42.660;23.342;2022-08-01T01:13:43;8.13;;;5.50;;
8048;SDS011;20935;42.660;23.342;2022-08-01T01:16:09;5.80;;;5.40;;
8048;SDS011;20935;42.660;23.342;2022-08-01T01:18:37;6.50;;;5.90;;
8048;SDS011;20935;42.660;23.342;2022-08-01T01:31:00;4.97;;;4.60;;
8048;SDS011;20935;42.660;23.342;2022-08-01T01:33:26;4.73;;;4.20;;
8048;SDS011;20935;42.660;23.342;2022-08-01T01:35:55;5.27;;;4.67;;
8048;SDS011;20935;42.660;23.342;2022-08-01T01:38:23;4.27;;;3.83;;
8048;SDS011;20935;42.660;23.342;2022-08-01T01:40:51;4.30;;;3.90;;
8048;SDS011;20935;42.660;23.342;2022-08-01T01:43:17;5.00;;;3.30;;
8048;SDS011;20935;42.660;23.342;2022-08-01T01:45:44;7.07;;;3.23;;
8048;SDS011;20935;42.660;23.342;2022-08-01T01:48:09;3.13;;;2.93;;
8048;SDS011;20935;42.660;23.342;2022-08-01T01:50:35;3.20;;;2.90;;
8048;SDS011;20935;42.660;23.342;2022-08-01T01:53:01;3.00;;;2.80;;
8048;SDS011;20935;42.660;23.342;2022-08-01T01:55:27;2.90;;;2.70;;
8048;SDS011;20935;42.660;23.342;2022-08-01T01:57:53;3.70;;;2.80;;
8048;SDS011;20935;42.660;23.342;2022-08-01T02:00:20;3.73;;;2.50;;
8048;SDS011;20935;42.660;23.342;2022-08-01T02:02:46;2.60;;;2.40;;
8048;SDS011;20935;42.660;23.342;2022-08-01T02:05:12;2.73;;;2.20;;
8048;SDS011;20935;42.660;23.342;2022-08-01T02:07:38;5.83;;;2.43;;
8048;SDS011;20935;42.660;23.342;2022-08-01T02:10:04;3.57;;;2.80;;
8048;SDS011;20935;42.660;23.342;2022-08-01T02:12:32;3.17;;;2.00;;
8048;SDS011;20935;42.660;23.342;2022-08-01T02:14:57;2.40;;;2.20;;
8048;SDS011;20935;42.660;23.342;2022-08-01T02:17:23;3.03;;;2.70;;
8048;SDS011;20935;42.660;23.342;2022-08-01T02:19:49;2.13;;;2.00;;
8048;SDS011;20935;42.660;23.342;2022-08-01T02:22:25;2.53;;;2.37;;
8048;SDS011;20935;42.660;23.342;2022-08-01T02:25:01;2.10;;;2.00;;
8048;SDS011;20935;42.660;23.342;2022-08-01T02:27:34;5.97;;;2.87;;
8048;SDS011;20935;42.660;23.342;2022-08-01T02:30:03;3.23;;;2.07;;
8048;SDS011;20935;42.660;23.342;2022-08-01T02:35:32;2.33;;;2.13;;
8048;SDS011;20935;42.660;23.342;2022-08-01T02:37:58;2.40;;;2.20;;
8048;SDS011;20935;42.660;23.342;2022-08-01T02:40:28;3.67;;;2.43;;
8048;SDS011;20935;42.660;23.342;2022-08-01T02:42:54;6.37;;;3.00;;
8048;SDS011;20935;42.660;23.342;2022-08-01T02:45:22;2.60;;;2.40;;
8048;SDS011;20935;42.660;23.342;2022-08-01T02:47:49;3.93;;;3.17;;
8048;SDS011;20935;42.660;23.342;2022-08-01T02:50:14;5.10;;;3.20;;
8048;SDS011;20935;42.660;23.342;2022-08-01T02:52:42;3.73;;;2.93;;
8048;SDS011;20935;42.660;23.342;2022-08-01T02:55:08;4.00;;;3.50;;
8048;SDS011;20935;42.660;23.342;2022-08-01T02:57:34;4.53;;;2.93;;
8048;SDS011;20935;42.660;23.342;2022-08-01T03:00:03;3.53;;;3.07;;
8048;SDS011;20935;42.660;23.342;2022-08-01T03:02:29;5.10;;;3.00;;
8048;SDS011;20935;42.660;23.342;2022-08-01T03:04:55;3.47;;;3.17;;
8048;SDS011;20935;42.660;23.342;2022-08-01T03:07:21;5.93;;;3.10;;
8048;SDS011;20935;42.660;23.342;2022-08-01T03:09:49;4.20;;;3.27;;
8048;SDS011;20935;42.660;23.342;2022-08-01T03:12:18;3.83;;;3.47;;
8048;SDS011;20935;42.660;23.342;2022-08-01T03:14:44;3.60;;;3.30;;
8048;SDS011;20935;42.660;23.342;2022-08-01T03:17:11;6.43;;;3.33;;
8048;SDS011;20935;42.660;23.342;2022-08-01T03:19:41;3.97;;;3.07;;
8048;SDS011;20935;42.660;23.342;2022-08-01T03:22:10;3.63;;;3.03;;
8048;SDS011;20935;42.660;23.342;2022-08-01T03:24:36;3.87;;;3.50;;
8048;SDS011;20935;42.660;23.342;2022-08-01T03:27:03;3.67;;;3.17;;
8048;SDS011;20935;42.660;23.342;2022-08-01T03:29:29;3.57;;;3.27;;
8048;SDS011;20935;42.660;23.342;2022-08-01T03:31:55;4.27;;;3.83;;
8048;SDS011;20935;42.660;23.342;2022-08-01T03:34:21;3.80;;;3.50;;
8048;SDS011;20935;42.660;23.342;2022-08-01T03:39:12;4.53;;;3.80;;
8048;SDS011;20935;42.660;23.342;2022-08-01T03:41:39;4.30;;;3.90;;
8048;SDS011;20935;42.660;23.342;2022-08-01T03:44:07;5.70;;;3.63;;
8048;SDS011;20935;42.660;23.342;2022-08-01T03:46:36;4.80;;;3.93;;
8048;SDS011;20935;42.660;23.342;2022-08-01T03:49:06;4.00;;;3.70;;
8048;SDS011;20935;42.660;23.342;2022-08-01T03:51:32;4.37;;;3.50;;
8048;SDS011;20935;42.660;23.342;2022-08-01T03:53:59;5.57;;;3.63;;
8048;SDS011;20935;42.660;23.342;2022-08-01T03:56:25;8.17;;;3.80;;
8048;SDS011;20935;42.660;23.342;2022-08-01T03:58:52;4.33;;;3.73;;
8048;SDS011;20935;42.660;23.342;2022-08-01T04:01:18;4.87;;;4.17;;
8048;SDS011;20935;42.660;23.342;2022-08-01T04:03:44;4.13;;;3.73;;
8048;SDS011;20935;42.660;23.342;2022-08-01T04:06:10;4.40;;;4.00;;
8048;SDS011;20935;42.660;23.342;2022-08-01T04:08:38;4.93;;;4.47;;
8048;SDS011;20935;42.660;23.342;2022-08-01T04:11:04;8.33;;;4.20;;
8048;SDS011;20935;42.660;23.342;2022-08-01T04:13:30;5.00;;;4.17;;
8048;SDS011;20935;42.660;23.342;2022-08-01T04:15:55;6.17;;;4.33;;
8048;SDS011;20935;42.660;23.342;2022-08-01T04:18:21;5.40;;;4.07;;
8048;SDS011;20935;42.660;23.342;2022-08-01T04:20:46;3.70;;;3.40;;
8048;SDS011;20935;42.660;23.342;2022-08-01T04:23:11;7.73;;;4.00;;
8048;SDS011;20935;42.660;23.342;2022-08-01T04:25:38;4.03;;;3.67;;
8048;SDS011;20935;42.660;23.342;2022-08-01T04:28:07;4.97;;;4.03;;
8048;SDS011;20935;42.660;23.342;2022-08-01T04:30:36;5.40;;;3.97;;
8048;SDS011;20935;42.660;23.342;2022-08-01T04:33:03;5.70;;;4.37;;
8048;SDS011;20935;42.660;23.342;2022-08-01T04:35:31;4.47;;;4.00;;
8048;SDS011;20935;42.660;23.342;2022-08-01T04:37:57;7.10;;;4.27;;
8048;SDS011;20935;42.660;23.342;2022-08-01T04:40:24;4.87;;;4.13;;
8048;SDS011;20935;42.660;23.342;2022-08-01T04:42:51;4.03;;;3.73;;
8048;SDS011;20935;42.660;23.342;2022-08-01T04:45:16;6.67;;;4.40;;
8048;SDS011;20935;42.660;23.342;2022-08-01T04:47:42;6.37;;;4.67;;
8048;SDS011;20935;42.660;23.342;2022-08-01T04:50:08;4.63;;;4.23;;
8048;SDS011;20935;42.660;23.342;2022-08-01T04:52:34;4.83;;;4.33;;
8048;SDS011;20935;42.660;23.342;2022-08-01T04:54:59;4.80;;;4.33;;
8048;SDS011;20935;42.660;23.342;2022-08-01T04:57:25;6.90;;;4.90;;
8048;SDS011;20935;42.660;23.342;2022-08-01T04:59:50;5.67;;;4.73;;
8048;SDS011;20935;42.660;23.342;2022-08-01T05:02:24;5.87;;;5.27;;
8048;SDS011;20935;42.660;23.342;2022-08-01T05:04:53;7.20;;;5.43;;
8048;SDS011;20935;42.660;23.342;2022-08-01T05:07:20;5.93;;;5.43;;
8048;SDS011;20935;42.660;23.342;2022-08-01T05:09:45;7.60;;;5.47;;
8048;SDS011;20935;42.660;23.342;2022-08-01T05:12:13;6.70;;;5.67;;
8048;SDS011;20935;42.660;23.342;2022-08-01T05:14:38;6.87;;;5.40;;
8048;SDS011;20935;42.660;23.342;2022-08-01T05:17:05;8.67;;;5.60;;
8048;SDS011;20935;42.660;23.342;2022-08-01T05:19:31;6.80;;;5.87;;
8048;SDS011;20935;42.660;23.342;2022-08-01T05:22:00;9.07;;;5.17;;
8048;SDS011;20935;42.660;23.342;2022-08-01T05:24:29;6.93;;;5.00;;
8048;SDS011;20935;42.660;23.342;2022-08-01T05:26:55;7.10;;;4.90;;
8048;SDS011;20935;42.660;23.342;2022-08-01T05:29:21;7.20;;;4.70;;
8048;SDS011;20935;42.660;23.342;2022-08-01T05:31:46;7.00;;;4.83;;
8048;SDS011;20935;42.660;23.342;2022-08-01T05:34:11;7.03;;;4.97;;
8048;SDS011;20935;42.660;23.342;2022-08-01T05:36:36;9.53;;;4.83;;
8048;SDS011;20935;42.660;23.342;2022-08-01T05:39:03;5.93;;;4.73;;
8048;SDS011;20935;42.660;23.342;2022-08-01T05:41:29;9.23;;;4.60;;
8048;SDS011;20935;42.660;23.342;2022-08-01T05:43:54;6.70;;;4.53;;
8048;SDS011;20935;42.660;23.342;2022-08-01T05:46:20;7.70;;;4.47;;
8048;SDS011;20935;42.660;23.342;2022-08-01T05:48:45;7.73;;;4.10;;
8048;SDS011;20935;42.660;23.342;2022-08-01T05:51:11;5.67;;;3.90;;
8048;SDS011;20935;42.660;23.342;2022-08-01T05:53:36;9.17;;;4.40;;
8048;SDS011;20935;42.660;23.342;2022-08-01T05:56:01;5.10;;;3.50;;
8048;SDS011;20935;42.660;23.342;2022-08-01T05:58:27;5.33;;;3.47;;
8048;SDS011;20935;42.660;23.342;2022-08-01T06:00:52;4.27;;;3.47;;
8048;SDS011;20935;42.660;23.342;2022-08-01T06:03:18;3.70;;;3.07;;
8048;SDS011;20935;42.660;23.342;2022-08-01T06:05:43;7.07;;;2.73;;
8048;SDS011;20935;42.660;23.342;2022-08-01T06:08:08;5.43;;;3.50;;
8048;SDS011;20935;42.660;23.342;2022-08-01T06:10:33;4.47;;;2.43;;
8048;SDS011;20935;42.660;23.342;2022-08-01T06:12:59;4.93;;;2.50;;
8048;SDS011;20935;42.660;23.342;2022-08-01T06:15:28;4.77;;;2.20;;
8048;SDS011;20935;42.660;23.342;2022-08-01T06:17:54;3.70;;;2.63;;
8048;SDS011;20935;42.660;23.342;2022-08-01T06:20:19;3.77;;;2.67;;
8048;SDS011;20935;42.660;23.342;2022-08-01T06:22:44;2.70;;;2.30;;
8048;SDS011;20935;42.660;23.342;2022-08-01T06:25:10;3.20;;;2.43;;
8048;SDS011;20935;42.660;23.342;2022-08-01T06:27:35;5.30;;;2.80;;
8048;SDS011;20935;42.660;23.342;2022-08-01T06:30:04;3.27;;;2.53;;
8048;SDS011;20935;42.660;23.342;2022-08-01T06:32:32;2.93;;;2.73;;
8048;SDS011;20935;42.660;23.342;2022-08-01T06:34:57;3.40;;;2.50;;
8048;SDS011;20935;42.660;23.342;2022-08-01T06:37:22;2.90;;;2.37;;
8048;SDS011;20935;42.660;23.342;2022-08-01T06:39:48;2.80;;;2.60;;
8048;SDS011;20935;42.660;23.342;2022-08-01T06:42:14;3.70;;;2.97;;
8048;SDS011;20935;42.660;23.342;2022-08-01T06:44:40;4.97;;;2.50;;
8048;SDS011;20935;42.660;23.342;2022-08-01T06:47:05;5.77;;;2.57;;
8048;SDS011;20935;42.660;23.342;2022-08-01T06:49:31;3.77;;;2.80;;
8048;SDS011;20935;42.660;23.342;2022-08-01T06:51:56;2.73;;;2.53;;
8048;SDS011;20935;42.660;23.342;2022-08-01T06:54:21;3.67;;;2.80;;
8048;SDS011;20935;42.660;23.342;2022-08-01T06:56:46;3.50;;;2.57;;
8048;SDS011;20935;42.660;23.342;2022-08-01T06:59:12;2.80;;;2.60;;
8048;SDS011;20935;42.660;23.342;2022-08-01T07:01:37;5.00;;;2.87;;
8048;SDS011;20935;42.660;23.342;2022-08-01T07:04:02;3.87;;;2.63;;
8048;SDS011;20935;42.660;23.342;2022-08-01T07:06:28;2.90;;;2.70;;
8048;SDS011;20935;42.660;23.342;2022-08-01T07:08:53;3.53;;;2.47;;
8048;SDS011;20935;42.660;23.342;2022-08-01T07:11:19;3.00;;;2.70;;
8048;SDS011;20935;42.660;23.342;2022-08-01T07:13:44;3.83;;;2.80;;
8048;SDS011;20935;42.660;23.342;2022-08-01T07:16:11;4.40;;;2.70;;
8048;SDS011;20935;42.660;23.342;2022-08-01T07:18:36;3.40;;;2.80;;
8048;SDS011;20935;42.660;23.342;2022-08-01T07:21:01;3.63;;;3.33;;
8048;SDS011;20935;42.660;23.342;2022-08-01T07:23:26;4.10;;;3.30;;
8048;SDS011;20935;42.660;23.342;2022-08-01T07:25:52;3.47;;;2.90;;
8048;SDS011;20935;42.660;23.342;2022-08-01T07:28:17;5.83;;;3.70;;
8048;SDS011;20935;42.660;23.342;2022-08-01T07:30:42;3.50;;;3.20;;
8048;SDS011;20935;42.660;23.342;2022-08-01T07:33:09;3.47;;;2.77;;
8048;SDS011;20935;42.660;23.342;2022-08-01T07:35:34;3.73;;;2.93;;
8048;SDS011;20935;42.660;23.342;2022-08-01T07:38:03;6.40;;;3.27;;
8048;SDS011;20935;42.660;23.342;2022-08-01T07:40:28;4.13;;;3.03;;
8048;SDS011;20935;42.660;23.342;2022-08-01T07:42:53;4.47;;;2.70;;
8048;SDS011;20935;42.660;23.342;2022-08-01T07:45:18;3.30;;;3.00;;
8048;SDS011;20935;42.660;23.342;2022-08-01T07:47:45;3.47;;;2.90;;
8048;SDS011;20935;42.660;23.342;2022-08-01T07:50:11;5.17;;;3.10;;
8048;SDS011;20935;42.660;23.342;2022-08-01T07:52:37;3.30;;;2.87;;
8048;SDS011;20935;42.660;23.342;2022-08-01T07:55:03;4.57;;;2.63;;
8048;SDS011;20935;42.660;23.342;2022-08-01T07:57:28;5.10;;;3.13;;
8048;SDS011;20935;42.660;23.342;2022-08-01T07:59:53;5.70;;;3.33;;
8048;SDS011;20935;42.660;23.342;2022-08-01T08:02:19;2.80;;;2.60;;
8048;SDS011;20935;42.660;23.342;2022-08-01T08:04:44;4.43;;;2.73;;
8048;SDS011;20935;42.660;23.342;2022-08-01T08:07:09;3.70;;;2.93;;
8048;SDS011;20935;42.660;23.342;2022-08-01T08:09:34;4.73;;;2.93;;
8048;SDS011;20935;42.660;23.342;2022-08-01T08:12:00;3.47;;;2.80;;
8048;SDS011;20935;42.660;23.342;2022-08-01T08:14:25;3.30;;;3.00;;
8048;SDS011;20935;42.660;23.342;2022-08-01T08:16:51;3.80;;;3.03;;
8048;SDS011;20935;42.660;23.342;2022-08-01T08:19:16;4.60;;;3.17;;
8048;SDS011;20935;42.660;23.342;2022-08-01T08:21:42;4.33;;;3.33;;
8048;SDS011;20935;42.660;23.342;2022-08-01T08:24:07;4.33;;;2.87;;
8048;SDS011;20935;42.660;23.342;2022-08-01T08:26:46;3.87;;;3.10;;
8048;SDS011;20935;42.660;23.342;2022-08-01T08:29:11;5.37;;;2.90;;
8048;SDS011;20935;42.660;23.342;2022-08-01T08:31:36;5.57;;;3.00;;
8048;SDS011;20935;42.660;23.342;2022-08-01T08:34:02;10.83;;;3.43;;
8048;SDS011;20935;42.660;23.342;2022-08-01T08:36:28;13.93;;;3.63;;
8048;SDS011;20935;42.660;23.342;2022-08-01T08:38:53;4.70;;;2.90;;
8048;SDS011;20935;42.660;23.342;2022-08-01T08:41:18;5.00;;;2.87;;
8048;SDS011;20935;42.660;23.342;2022-08-01T08:43:43;3.17;;;2.90;;
8048;SDS011;20935;42.660;23.342;2022-08-01T08:46:09;4.00;;;2.90;;
8048;SDS011;20935;42.660;23.342;2022-08-01T08:48:36;4.60;;;2.60;;
8048;SDS011;20935;42.660;23.342;2022-08-01T08:51:02;4.30;;;3.00;;
8048;SDS011;20935;42.660;23.342;2022-08-01T08:53:27;3.33;;;2.93;;
8048;SDS011;20935;42.660;23.342;2022-08-01T08:55:54;3.00;;;2.70;;
8048;SDS011;20935;42.660;23.342;2022-08-01T08:58:20;3.53;;;2.63;;
8048;SDS011;20935;42.660;23.342;2022-08-01T09:00:46;3.07;;;2.87;;
8048;SDS011;20935;42.660;23.342;2022-08-01T09:03:12;4.57;;;2.60;;
8048;SDS011;20935;42.660;23.342;2022-08-01T09:05:37;2.90;;;2.70;;
8048;SDS011;20935;42.660;23.342;2022-08-01T09:08:05;3.03;;;2.80;;
8048;SDS011;20935;42.660;23.342;2022-08-01T09:10:31;3.80;;;2.57;;
8048;SDS011;20935;42.660;23.342;2022-08-01T09:15:38;3.10;;;2.77;;
8048;SDS011;20935;42.660;23.342;2022-08-01T09:18:03;2.63;;;2.40;;
8048;SDS011;20935;42.660;23.342;2022-08-01T09:20:28;3.13;;;2.80;;
8048;SDS011;20935;42.660;23.342;2022-08-01T09:22:54;3.83;;;2.60;;
8048;SDS011;20935;42.660;23.342;2022-08-01T09:25:19;3.23;;;2.93;;
8048;SDS011;20935;42.660;23.342;2022-08-01T09:27:44;3.83;;;2.73;;
8048;SDS011;20935;42.660;23.342;2022-08-01T09:30:14;2.90;;;2.70;;
8048;SDS011;20935;42.660;23.342;2022-08-01T09:32:59;3.80;;;2.70;;
8048;SDS011;20935;42.660;23.342;2022-08-01T09:35:29;3.73;;;2.50;;
8048;SDS011;20935;42.660;23.342;2022-08-01T09:40:46;3.47;;;2.70;;
8048;SDS011;20935;42.660;23.342;2022-08-01T09:43:12;2.50;;;2.30;;
8048;SDS011;20935;42.660;23.342;2022-08-01T09:45:37;4.43;;;2.33;;
8048;SDS011;20935;42.660;23.342;2022-08-01T09:48:09;2.57;;;2.37;;
8048;SDS011;20935;42.660;23.342;2022-08-01T09:50:47;3.57;;;2.30;;
8048;SDS011;20935;42.660;23.342;2022-08-01T09:53:13;3.07;;;2.70;;
8048;SDS011;20935;42.660;23.342;2022-08-01T09:55:39;3.00;;;2.67;;
8048;SDS011;20935;42.660;23.342;2022-08-01T09:58:05;4.00;;;2.77;;
8048;SDS011;20935;42.660;23.342;2022-08-01T10:00:31;3.83;;;2.70;;
8048;SDS011;20935;42.660;23.342;2022-08-01T10:02:57;3.40;;;3.10;;
8048;SDS011;20935;42.660;23.342;2022-08-01T10:05:33;3.00;;;2.77;;
8048;SDS011;20935;42.660;23.342;2022-08-01T10:07:59;2.63;;;2.43;;
8048;SDS011;20935;42.660;23.342;2022-08-01T10:10:25;4.43;;;3.20;;
8048;SDS011;20935;42.660;23.342;2022-08-01T10:12:51;3.33;;;2.40;;
8048;SDS011;20935;42.660;23.342;2022-08-01T10:15:16;4.23;;;3.17;;
8048;SDS011;20935;42.660;23.342;2022-08-01T10:18:01;3.17;;;2.93;;
8048;SDS011;20935;42.660;23.342;2022-08-01T10:20:28;3.50;;;2.70;;
8048;SDS011;20935;42.660;23.342;2022-08-01T10:22:53;3.20;;;2.90;;
8048;SDS011;20935;42.660;23.342;2022-08-01T10:25:19;4.10;;;2.70;;
8048;SDS011;20935;42.660;23.342;2022-08-01T10:27:45;3.93;;;3.00;;
8048;SDS011;20935;42.660;23.342;2022-08-01T10:30:14;2.80;;;2.60;;
8048;SDS011;20935;42.660;23.342;2022-08-01T10:32:39;2.50;;;2.27;;
8048;SDS011;20935;42.660;23.342;2022-08-01T10:35:07;3.03;;;2.80;;
8048;SDS011;20935;42.660;23.342;2022-08-01T10:37:33;2.93;;;2.40;;
8048;SDS011;20935;42.660;23.342;2022-08-01T10:39:59;3.73;;;2.87;;
8048;SDS011;20935;42.660;23.342;2022-08-01T10:42:25;2.60;;;2.40;;
8048;SDS011;20935;42.660;23.342;2022-08-01T10:44:52;2.80;;;2.60;;
8048;SDS011;20935;42.660;23.342;2022-08-01T10:47:24;3.40;;;2.97;;
8048;SDS011;20935;42.660;23.342;2022-08-01T10:49:53;2.67;;;2.40;;
8048;SDS011;20935;42.660;23.342;2022-08-01T10:52:21;2.97;;;2.67;;
8048;SDS011;20935;42.660;23.342;2022-08-01T10:54:46;3.73;;;2.33;;
8048;SDS011;20935;42.660;23.342;2022-08-01T10:57:12;3.10;;;2.33;;
8048;SDS011;20935;42.660;23.342;2022-08-01T10:59:48;2.50;;;2.30;;
8048;SDS011;20935;42.660;23.342;2022-08-01T11:02:25;2.10;;;2.00;;
8048;SDS011;20935;42.660;23.342;2022-08-01T11:07:20;2.80;;;2.60;;
8048;SDS011;20935;42.660;23.342;2022-08-01T11:09:47;4.13;;;2.40;;
8048;SDS011;20935;42.660;23.342;2022-08-01T11:12:13;2.87;;;2.60;;
8048;SDS011;20935;42.660;23.342;2022-08-01T11:17:32;3.73;;;3.40;;
8048;SDS011;20935;42.660;23.342;2022-08-01T11:20:14;4.07;;;2.67;;
8048;SDS011;20935;42.660;23.342;2022-08-01T11:30:49;5.00;;;2.97;;
8048;SDS011;20935;42.660;23.342;2022-08-01T11:33:16;2.77;;;2.53;;
8048;SDS011;20935;42.660;23.342;2022-08-01T11:38:26;2.80;;;2.60;;
8048;SDS011;20935;42.660;23.342;2022-08-01T11:43:37;2.40;;;2.20;;
8048;SDS011;20935;42.660;23.342;2022-08-01T11:46:18;2.80;;;2.60;;
8048;SDS011;20935;42.660;23.342;2022-08-01T11:48:44;2.87;;;2.50;;
8048;SDS011;20935;42.660;23.342;2022-08-01T11:51:09;5.70;;;2.40;;
8048;SDS011;20935;42.660;23.342;2022-08-01T11:53:45;4.70;;;2.53;;
8048;SDS011;20935;42.660;23.342;2022-08-01T11:56:11;2.60;;;2.40;;
8048;SDS011;20935;42.660;23.342;2022-08-01T11:58:36;3.90;;;2.70;;
8048;SDS011;20935;42.660;23.342;2022-08-01T12:01:01;4.50;;;2.60;;
8048;SDS011;20935;42.660;23.342;2022-08-01T12:03:28;2.90;;;2.70;;
8048;SDS011;20935;42.660;23.342;2022-08-01T12:05:54;4.20;;;2.70;;
8048;SDS011;20935;42.660;23.342;2022-08-01T12:08:26;3.00;;;2.70;;
8048;SDS011;20935;42.660;23.342;2022-08-01T12:10:52;3.80;;;2.70;;
8048;SDS011;20935;42.660;23.342;2022-08-01T12:13:17;4.80;;;2.93;;
8048;SDS011;20935;42.660;23.342;2022-08-01T12:15:44;4.40;;;2.80;;
8048;SDS011;20935;42.660;23.342;2022-08-01T12:18:10;2.80;;;2.60;;
8048;SDS011;20935;42.660;23.342;2022-08-01T12:20:37;3.73;;;2.50;;
8048;SDS011;20935;42.660;23.342;2022-08-01T12:23:03;5.60;;;2.90;;
8048;SDS011;20935;42.660;23.342;2022-08-01T12:25:31;2.73;;;2.53;;
8048;SDS011;20935;42.660;23.342;2022-08-01T12:27:59;3.70;;;2.87;;
8048;SDS011;20935;42.660;23.342;2022-08-01T12:30:24;2.97;;;2.77;;
8048;SDS011;20935;42.660;23.342;2022-08-01T12:32:53;3.23;;;2.93;;
8048;SDS011;20935;42.660;23.342;2022-08-01T12:35:19;3.93;;;2.90;;
8048;SDS011;20935;42.660;23.342;2022-08-01T12:37:49;3.10;;;2.90;;
8048;SDS011;20935;42.660;23.342;2022-08-01T12:40:18;3.10;;;2.90;;
8048;SDS011;20935;42.660;23.342;2022-08-01T12:42:48;3.67;;;2.97;;
8048;SDS011;20935;42.660;23.342;2022-08-01T12:47:52;6.10;;;2.80;;
8048;SDS011;20935;42.660;23.342;2022-08-01T12:50:18;4.93;;;3.00;;
8048;SDS011;20935;42.660;23.342;2022-08-01T12:52:44;3.47;;;2.70;;
8048;SDS011;20935;42.660;23.342;2022-08-01T12:55:11;3.37;;;3.07;;
8048;SDS011;20935;42.660;23.342;2022-08-01T12:57:39;3.33;;;3.03;;
8048;SDS011;20935;42.660;23.342;2022-08-01T13:00:05;6.40;;;3.00;;
8048;SDS011;20935;42.660;23.342;2022-08-01T13:02:32;3.23;;;2.93;;
8048;SDS011;20935;42.660;23.342;2022-08-01T13:04:58;3.20;;;2.80;;
8048;SDS011;20935;42.660;23.342;2022-08-01T13:07:34;3.60;;;2.90;;
8048;SDS011;20935;42.660;23.342;2022-08-01T13:09:59;4.47;;;3.00;;
8048;SDS011;20935;42.660;23.342;2022-08-01T13:12:24;3.30;;;2.80;;
8048;SDS011;20935;42.660;23.342;2022-08-01T13:14:49;2.80;;;2.60;;
8048;SDS011;20935;42.660;23.342;2022-08-01T13:17:29;3.83;;;2.47;;
8048;SDS011;20935;42.660;23.342;2022-08-01T13:19:54;2.83;;;2.63;;
8048;SDS011;20935;42.660;23.342;2022-08-01T13:22:19;5.13;;;2.90;;
8048;SDS011;20935;42.660;23.342;2022-08-01T13:24:45;3.03;;;2.83;;
8048;SDS011;20935;42.660;23.342;2022-08-01T13:27:19;3.20;;;3.00;;
8048;SDS011;20935;42.660;23.342;2022-08-01T13:29:44;3.13;;;2.83;;
8048;SDS011;20935;42.660;23.342;2022-08-01T13:32:12;3.53;;;2.37;;
8048;SDS011;20935;42.660;23.342;2022-08-01T13:34:38;4.83;;;2.80;;
8048;SDS011;20935;42.660;23.342;2022-08-01T13:37:04;3.03;;;2.80;;
8048;SDS011;20935;42.660;23.342;2022-08-01T13:39:29;3.40;;;3.10;;
8048;SDS011;20935;42.660;23.342;2022-08-01T13:42:13;4.20;;;2.60;;
8048;SDS011;20935;42.660;23.342;2022-08-01T13:44:39;5.03;;;2.70;;
8048;SDS011;20935;42.660;23.342;2022-08-01T13:47:05;2.70;;;2.50;;
8048;SDS011;20935;42.660;23.342;2022-08-01T13:49:31;2.77;;;2.57;;
8048;SDS011;20935;42.660;23.342;2022-08-01T13:51:56;2.83;;;2.63;;
8048;SDS011;20935;42.660;23.342;2022-08-01T13:54:22;2.63;;;2.43;;
8048;SDS011;20935;42.660;23.342;2022-08-01T13:56:48;2.87;;;2.67;;
8048;SDS011;20935;42.660;23.342;2022-08-01T13:59:16;5.10;;;2.67;;
8048;SDS011;20935;42.660;23.342;2022-08-01T14:01:41;2.87;;;2.67;;
8048;SDS011;20935;42.660;23.342;2022-08-01T14:04:07;3.73;;;3.00;;
8048;SDS011;20935;42.660;23.342;2022-08-01T14:06:32;2.97;;;2.77;;
8048;SDS011;20935;42.660;23.342;2022-08-01T14:08:58;3.93;;;2.70;;
8048;SDS011;20935;42.660;23.342;2022-08-01T14:11:23;2.77;;;2.57;;
8048;SDS011;20935;42.660;23.342;2022-08-01T14:13:48;2.90;;;2.70;;
8048;SDS011;20935;42.660;23.342;2022-08-01T14:16:14;3.20;;;2.73;;
8048;SDS011;20935;42.660;23.342;2022-08-01T14:18:39;4.43;;;2.80;;
8048;SDS011;20935;42.660;23.342;2022-08-01T14:21:05;2.87;;;2.67;;
8048;SDS011;20935;42.660;23.342;2022-08-01T14:23:31;3.00;;;2.70;;
8048;SDS011;20935;42.660;23.342;2022-08-01T14:25:56;2.83;;;2.63;;
8048;SDS011;20935;42.660;23.342;2022-08-01T14:28:21;2.83;;;2.63;;
8048;SDS011;20935;42.660;23.342;2022-08-01T14:30:48;2.97;;;2.67;;
8048;SDS011;20935;42.660;23.342;2022-08-01T14:33:13;5.57;;;2.63;;
8048;SDS011;20935;42.660;23.342;2022-08-01T14:35:39;2.80;;;2.60;;
8048;SDS011;20935;42.660;23.342;2022-08-01T14:38:04;2.80;;;2.60;;
8048;SDS011;20935;42.660;23.342;2022-08-01T14:40:30;2.70;;;2.50;;
8048;SDS011;20935;42.660;23.342;2022-08-01T14:42:55;3.87;;;2.90;;
8048;SDS011;20935;42.660;23.342;2022-08-01T14:45:28;2.80;;;2.40;;
8048;SDS011;20935;42.660;23.342;2022-08-01T14:47:53;2.77;;;2.60;;
8048;SDS011;20935;42.660;23.342;2022-08-01T14:50:19;3.27;;;2.40;;
8048;SDS011;20935;42.660;23.342;2022-08-01T14:52:44;3.10;;;2.40;;
8048;SDS011;20935;42.660;23.342;2022-08-01T14:55:10;2.57;;;2.40;;
8048;SDS011;20935;42.660;23.342;2022-08-01T14:57:36;2.30;;;2.20;;
8048;SDS011;20935;42.660;23.342;2022-08-01T15:00:06;2.37;;;2.17;;
8048;SDS011;20935;42.660;23.342;2022-08-01T15:02:32;3.40;;;2.30;;
8048;SDS011;20935;42.660;23.342;2022-08-01T15:04:58;2.50;;;2.30;;
8048;SDS011;20935;42.660;23.342;2022-08-01T15:07:23;3.10;;;2.30;;
8048;SDS011;20935;42.660;23.342;2022-08-01T15:09:48;2.80;;;2.27;;
8048;SDS011;20935;42.660;23.342;2022-08-01T15:12:14;3.40;;;2.63;;
8048;SDS011;20935;42.660;23.342;2022-08-01T15:14:39;3.47;;;2.37;;
8048;SDS011;20935;42.660;23.342;2022-08-01T15:17:17;2.77;;;2.47;;
8048;SDS011;20935;42.660;23.342;2022-08-01T15:19:43;2.60;;;2.10;;
8048;SDS011;20935;42.660;23.342;2022-08-01T15:22:09;4.00;;;2.20;;
8048;SDS011;20935;42.660;23.342;2022-08-01T15:24:34;2.73;;;2.53;;
8048;SDS011;20935;42.660;23.342;2022-08-01T15:26:59;2.23;;;2.03;;